createdAt,value
2023-02-28T00:01:44.478Z,15.80
2023-02-28T00:04:12.580Z,14.90
2023-02-28T00:06:40.747Z,15.50
2023-02-28T00:09:08.714Z,14.90
2023-02-28T00:11:38.931Z,12.80
2023-02-28T00:14:07.130Z,11.90
2023-02-28T00:16:35.866Z,13.40
2023-02-28T00:19:04.037Z,11.30
2023-02-28T00:21:32.278Z,12.20
2023-02-28T00:24:00.399Z,12.90
2023-02-28T00:26:28.480Z,11.90
2023-02-28T00:28:56.585Z,12.80
2023-02-28T00:31:24.741Z,10.80
2023-02-28T00:33:52.898Z,13.70
2023-02-28T00:36:22.505Z,15.20
2023-02-28T00:38:50.677Z,14.70
2023-02-28T00:41:18.851Z,14.60
2023-02-28T00:43:48.484Z,15.00
2023-02-28T00:46:16.673Z,11.80
2023-02-28T00:48:44.740Z,15.30
2023-02-28T00:51:12.742Z,9.20
2023-02-28T00:53:40.832Z,17.50
2023-02-28T00:56:08.981Z,10.70
2023-02-28T00:58:37.376Z,13.40
2023-02-28T01:01:05.587Z,11.20
2023-02-28T01:03:33.843Z,13.30
2023-02-28T01:06:01.919Z,16.50
2023-02-28T01:08:29.985Z,13.90
2023-02-28T01:10:58.169Z,14.00
2023-02-28T01:13:26.636Z,14.40
2023-02-28T01:15:57.425Z,11.30
2023-02-28T01:18:26.442Z,11.10
2023-02-28T01:20:54.533Z,11.10
2023-02-28T01:23:24.528Z,14.20
2023-02-28T01:25:53.176Z,11.80
2023-02-28T01:28:21.509Z,12.90
2023-02-28T01:30:52.794Z,12.40
2023-02-28T01:33:21.311Z,14.40
2023-02-28T01:35:49.611Z,10.50
2023-02-28T01:38:22.675Z,10.80
2023-02-28T01:40:52.123Z,12.00
2023-02-28T01:45:50.515Z,11.10
2023-02-28T01:48:20.353Z,17.00
2023-02-28T01:50:50.114Z,12.00
2023-02-28T01:53:26.190Z,13.20
2023-02-28T01:55:55.323Z,12.70
2023-02-28T01:58:23.893Z,10.80
2023-02-28T02:00:52.476Z,11.70
2023-02-28T02:03:21.496Z,12.00
2023-02-28T02:05:49.994Z,12.20
2023-02-28T02:08:22.555Z,14.30
2023-02-28T02:10:56.593Z,15.20
2023-02-28T02:13:38.551Z,12.80
2023-02-28T02:16:36.820Z,12.20
2023-02-28T02:19:28.511Z,15.20
2023-02-28T02:22:13.821Z,14.30
2023-02-28T02:24:41.811Z,13.10
2023-02-28T02:27:28.379Z,9.90
2023-02-28T02:30:11.555Z,14.80
2023-02-28T02:33:04.649Z,13.60
2023-02-28T02:35:44.690Z,12.10
2023-02-28T02:38:15.707Z,13.20
2023-02-28T02:41:32.005Z,13.80
2023-02-28T02:44:15.284Z,10.60
2023-02-28T02:46:46.334Z,13.10
2023-02-28T02:49:36.432Z,15.60
2023-02-28T02:52:09.164Z,13.80
2023-02-28T02:54:44.418Z,14.70
2023-02-28T02:57:21.183Z,10.10
2023-02-28T02:59:52.992Z,13.70
2023-02-28T03:02:23.496Z,12.70
2023-02-28T03:05:01.726Z,16.80
2023-02-28T03:07:29.956Z,15.10
2023-02-28T03:09:59.288Z,17.60
2023-02-28T03:12:54.664Z,19.50
2023-02-28T03:15:32.928Z,17.10
2023-02-28T03:18:12.615Z,15.60
2023-02-28T03:20:52.443Z,15.10
2023-02-28T03:23:39.519Z,14.20
2023-02-28T03:26:19.840Z,21.90
2023-02-28T03:29:14.012Z,16.70
2023-02-28T03:31:50.295Z,17.80
2023-02-28T03:34:20.699Z,17.30
2023-02-28T03:36:54.873Z,16.00
2023-02-28T03:39:29.774Z,16.20
2023-02-28T03:42:02.342Z,16.60
2023-02-28T03:44:36.181Z,14.30
2023-02-28T03:47:12.489Z,17.30
2023-02-28T03:49:53.684Z,16.80
2023-02-28T03:52:26.200Z,18.00
2023-02-28T03:55:03.869Z,18.60
2023-02-28T03:57:38.974Z,19.60
2023-02-28T04:00:18.933Z,16.10
2023-02-28T04:02:47.206Z,17.70
2023-02-28T04:05:15.674Z,16.80
2023-02-28T04:07:43.817Z,15.90
2023-02-28T04:10:14.216Z,12.30
2023-02-28T04:12:42.261Z,14.10
2023-02-28T04:15:11.696Z,17.20
2023-02-28T04:17:39.744Z,44.70
2023-02-28T04:20:10.823Z,52.90
2023-02-28T04:22:38.828Z,20.90
2023-02-28T04:25:07.800Z,11.20
2023-02-28T04:30:04.664Z,12.50
2023-02-28T04:32:32.735Z,15.80
2023-02-28T04:35:00.795Z,17.20
2023-02-28T04:37:29.912Z,17.20
2023-02-28T04:39:57.877Z,23.40
2023-02-28T04:42:25.934Z,17.50
2023-02-28T04:44:54.083Z,25.80
2023-02-28T04:47:22.083Z,19.30
2023-02-28T04:49:50.088Z,14.00
2023-02-28T04:52:18.099Z,11.40
2023-02-28T04:54:46.444Z,22.00
2023-02-28T04:57:15.278Z,12.80
2023-02-28T04:59:43.426Z,16.60
2023-02-28T05:02:11.499Z,17.70
2023-02-28T05:04:39.598Z,13.20
2023-02-28T05:07:07.973Z,13.90
2023-02-28T05:09:36.459Z,13.90
2023-02-28T05:12:04.854Z,24.20
2023-02-28T05:14:33.056Z,31.90
2023-02-28T05:17:01.200Z,44.50
2023-02-28T05:19:29.174Z,28.20
2023-02-28T05:21:57.321Z,21.40
2023-02-28T05:24:25.540Z,19.00
2023-02-28T05:26:55.361Z,18.80
2023-02-28T05:29:23.487Z,23.30
2023-02-28T05:31:51.623Z,22.90
2023-02-28T05:34:19.895Z,29.80
2023-02-28T05:36:48.032Z,23.00
2023-02-28T05:39:16.225Z,19.40
2023-02-28T05:41:44.816Z,24.50
2023-02-28T05:44:13.492Z,22.40
2023-02-28T05:46:41.994Z,24.60
2023-02-28T05:49:10.331Z,28.90
2023-02-28T05:51:41.180Z,24.80
2023-02-28T05:54:09.649Z,31.50
2023-02-28T05:56:40.304Z,18.60
2023-02-28T05:59:08.562Z,20.20
2023-02-28T06:01:42.498Z,31.00
2023-02-28T06:04:22.174Z,32.40
2023-02-28T06:06:54.341Z,26.20
2023-02-28T06:09:22.497Z,19.50
2023-02-28T06:11:50.549Z,16.00
2023-02-28T06:14:20.673Z,16.80
2023-02-28T06:16:48.834Z,18.30
2023-02-28T06:19:17.689Z,21.20
2023-02-28T06:26:42.562Z,14.20
2023-02-28T06:29:10.658Z,13.90
2023-02-28T06:31:39.689Z,17.20
2023-02-28T06:34:07.977Z,16.60
2023-02-28T06:36:37.013Z,13.10
2023-02-28T06:39:05.678Z,16.00
2023-02-28T06:41:53.546Z,16.10
2023-02-28T06:44:24.394Z,17.20
2023-02-28T06:46:52.804Z,17.70
2023-02-28T06:49:20.978Z,16.50
2023-02-28T06:51:49.008Z,17.90
2023-02-28T06:54:17.214Z,18.20
2023-02-28T06:56:45.420Z,18.10
2023-02-28T06:59:14.283Z,16.40
2023-02-28T07:01:42.513Z,17.00
2023-02-28T07:04:10.823Z,17.60
2023-02-28T07:06:39.024Z,26.20
2023-02-28T07:09:07.878Z,26.50
2023-02-28T07:11:36.215Z,26.40
2023-02-28T07:14:04.295Z,29.30
2023-02-28T07:16:32.860Z,37.20
2023-02-28T07:19:01.107Z,52.40
2023-02-28T07:21:29.448Z,31.50
2023-02-28T07:23:58.271Z,43.90
2023-02-28T07:26:26.316Z,32.50
2023-02-28T07:28:55.317Z,27.00
2023-02-28T07:31:23.555Z,29.60
2023-02-28T07:33:51.765Z,32.60
2023-02-28T07:36:20.138Z,32.60
2023-02-28T07:38:51.096Z,35.50
2023-02-28T07:41:21.564Z,34.60
2023-02-28T07:43:49.743Z,35.90
2023-02-28T07:46:18.308Z,38.20
2023-02-28T07:51:14.998Z,37.20
2023-02-28T07:53:43.180Z,31.20
2023-02-28T07:56:11.894Z,26.50
2023-02-28T08:01:10.186Z,39.00
2023-02-28T08:03:39.808Z,36.10
2023-02-28T08:06:16.325Z,28.50
2023-02-28T08:08:45.664Z,32.70
2023-02-28T08:11:14.975Z,29.70
2023-02-28T08:13:45.200Z,37.30
2023-02-28T08:16:23.209Z,46.60
2023-02-28T08:18:53.436Z,53.40
2023-02-28T08:21:22.346Z,46.00
2023-02-28T08:23:52.125Z,38.10
2023-02-28T08:26:21.820Z,45.40
2023-02-28T08:28:50.584Z,49.30
2023-02-28T08:31:19.738Z,43.10
2023-02-28T08:33:49.875Z,42.30
2023-02-28T08:36:19.129Z,43.70
2023-02-28T08:38:47.253Z,48.50
2023-02-28T08:41:15.615Z,46.90
2023-02-28T08:43:44.011Z,80.50
2023-02-28T08:46:14.889Z,50.30
2023-02-28T08:48:43.266Z,53.90
2023-02-28T08:51:19.625Z,39.80
2023-02-28T08:53:50.612Z,90.00
2023-02-28T08:56:19.341Z,76.80
2023-02-28T09:01:19.424Z,59.40
2023-02-28T09:03:49.379Z,58.70
2023-02-28T09:06:19.823Z,45.30
2023-02-28T09:08:48.193Z,42.40
2023-02-28T09:11:17.522Z,41.20
2023-02-28T09:13:47.064Z,55.30
2023-02-28T09:16:17.434Z,47.50
2023-02-28T09:18:46.223Z,46.80
2023-02-28T09:23:46.807Z,83.00
2023-02-28T09:26:20.753Z,30.60
2023-02-28T09:28:49.951Z,25.20
2023-02-28T09:31:22.331Z,29.50
2023-02-28T09:33:56.088Z,17.20
2023-02-28T09:36:37.997Z,18.30
2023-02-28T09:39:13.668Z,15.30
2023-02-28T09:41:51.451Z,14.00
2023-02-28T09:44:48.632Z,15.10
2023-02-28T09:47:34.160Z,18.70
2023-02-28T09:50:20.933Z,22.60
2023-02-28T09:52:51.422Z,19.80
2023-02-28T09:55:58.206Z,17.50
2023-02-28T09:58:32.121Z,29.50
2023-02-28T10:01:35.355Z,18.00
2023-02-28T10:04:15.929Z,24.20
2023-02-28T10:06:50.568Z,15.00
2023-02-28T10:09:30.342Z,18.20
2023-02-28T10:12:04.735Z,16.40
2023-02-28T10:14:36.620Z,13.70
2023-02-28T10:17:14.381Z,18.20
2023-02-28T10:19:48.428Z,14.10
2023-02-28T10:22:39.042Z,15.50
2023-02-28T10:25:22.322Z,22.00
2023-02-28T10:27:54.408Z,23.10
2023-02-28T10:30:22.610Z,25.30
2023-02-28T10:32:56.800Z,34.80
2023-02-28T10:35:28.471Z,51.80
2023-02-28T10:38:09.951Z,54.00
2023-02-28T10:40:38.043Z,28.50
2023-02-28T10:43:20.092Z,29.50
2023-02-28T10:46:16.483Z,27.10
2023-02-28T10:49:07.845Z,26.70
2023-02-28T10:51:41.213Z,32.80
2023-02-28T10:54:39.120Z,26.40
2023-02-28T10:57:23.028Z,34.80
2023-02-28T11:00:14.487Z,56.30
2023-02-28T11:02:47.668Z,52.80
2023-02-28T11:05:35.121Z,30.20
2023-02-28T11:08:18.218Z,23.70
2023-02-28T11:10:59.883Z,47.80
2023-02-28T11:13:36.215Z,19.90
2023-02-28T11:16:08.743Z,20.50
2023-02-28T11:18:55.792Z,31.90
2023-02-28T11:21:54.374Z,21.10
2023-02-28T11:26:58.344Z,21.30
2023-02-28T11:29:35.975Z,23.30
2023-02-28T11:32:13.208Z,20.70
2023-02-28T11:34:42.778Z,23.60
2023-02-28T11:37:18.659Z,19.70
2023-02-28T11:39:47.776Z,23.30
2023-02-28T11:42:33.423Z,19.10
2023-02-28T11:45:23.744Z,15.70
2023-02-28T11:48:01.187Z,14.70
2023-02-28T11:51:02.272Z,15.00
2023-02-28T11:53:42.762Z,18.40
2023-02-28T11:56:16.626Z,17.70
2023-02-28T11:58:49.949Z,16.20
2023-02-28T12:01:36.812Z,18.80
2023-02-28T12:04:23.753Z,13.40
2023-02-28T12:07:10.732Z,13.20
2023-02-28T12:09:56.800Z,14.10
2023-02-28T12:12:27.738Z,12.80
2023-02-28T12:15:02.613Z,13.50
2023-02-28T12:17:44.454Z,18.00
2023-02-28T12:20:15.952Z,21.60
2023-02-28T12:23:12.094Z,16.50
2023-02-28T12:25:52.735Z,11.00
2023-02-28T12:28:27.470Z,15.80
2023-02-28T12:31:02.653Z,20.10
2023-02-28T12:33:40.899Z,16.60
2023-02-28T12:36:18.728Z,21.80
2023-02-28T12:38:56.080Z,19.20
2023-02-28T12:41:51.377Z,12.50
2023-02-28T12:44:33.990Z,14.20
2023-02-28T12:47:06.690Z,16.70
2023-02-28T12:49:59.478Z,12.90
2023-02-28T12:52:36.863Z,17.30
2023-02-28T12:55:45.435Z,46.70
2023-02-28T12:58:39.723Z,44.00
2023-02-28T13:01:16.839Z,42.00
2023-02-28T13:04:11.391Z,31.60
2023-02-28T13:06:39.606Z,19.90
2023-02-28T13:09:17.904Z,25.60
2023-02-28T13:11:52.171Z,19.70
2023-02-28T13:14:28.786Z,20.00
2023-02-28T13:17:11.686Z,17.40
2023-02-28T13:20:16.423Z,17.00
2023-02-28T13:22:53.961Z,15.60
2023-02-28T13:25:34.666Z,17.30
2023-02-28T13:28:10.526Z,18.10
2023-02-28T13:30:54.364Z,22.20
2023-02-28T13:33:34.380Z,18.70
2023-02-28T13:36:33.162Z,17.00
2023-02-28T13:39:22.742Z,7.20
2023-02-28T13:41:51.250Z,15.40
2023-02-28T13:44:27.638Z,16.30
2023-02-28T13:46:58.404Z,17.30
2023-02-28T13:49:29.797Z,18.20
2023-02-28T13:52:07.250Z,19.40
2023-02-28T13:54:50.570Z,24.40
2023-02-28T13:57:48.078Z,20.20
2023-02-28T14:00:54.940Z,18.30
2023-02-28T14:03:41.258Z,27.20
2023-02-28T14:06:31.378Z,25.90
2023-02-28T14:09:04.987Z,24.90
2023-02-28T14:11:39.358Z,27.20
2023-02-28T14:14:11.192Z,59.60
2023-02-28T14:16:46.549Z,30.60
2023-02-28T14:19:25.911Z,29.00
2023-02-28T14:22:22.273Z,31.00
2023-02-28T14:25:09.366Z,25.20
2023-02-28T14:28:15.043Z,28.70
2023-02-28T14:31:09.021Z,35.00
2023-02-28T14:33:48.036Z,70.90
2023-02-28T14:36:23.167Z,50.50
2023-02-28T14:39:08.009Z,33.70
2023-02-28T14:41:40.205Z,38.30
2023-02-28T14:44:28.551Z,41.40
2023-02-28T14:46:59.026Z,41.60
2023-02-28T14:49:30.370Z,32.30
2023-02-28T14:52:12.944Z,32.90
2023-02-28T14:54:42.577Z,21.80
2023-02-28T14:57:29.574Z,26.00
2023-02-28T15:00:12.071Z,25.80
2023-02-28T15:02:42.032Z,26.00
2023-02-28T15:05:21.138Z,33.30
2023-02-28T15:08:01.870Z,49.40
2023-02-28T15:10:30.218Z,40.50
2023-02-28T15:13:12.539Z,37.80
2023-02-28T15:16:01.346Z,37.20
2023-02-28T15:18:43.498Z,40.00
2023-02-28T15:21:19.495Z,36.80
2023-02-28T15:24:25.305Z,40.80
2023-02-28T15:26:59.833Z,23.90
2023-02-28T15:29:31.212Z,29.20
2023-02-28T15:32:06.099Z,34.30
2023-02-28T15:34:42.170Z,27.90
2023-02-28T15:37:39.440Z,30.70
2023-02-28T15:40:16.576Z,81.20
2023-02-28T15:43:15.122Z,84.10
2023-02-28T15:46:16.899Z,39.60
2023-02-28T15:48:57.767Z,44.70
2023-02-28T15:51:37.994Z,45.70
2023-02-28T15:54:16.218Z,49.10
2023-02-28T15:56:47.384Z,64.40
2023-02-28T15:59:22.474Z,59.50
2023-02-28T16:02:19.701Z,54.50
2023-02-28T16:05:10.091Z,71.50
2023-02-28T16:07:40.420Z,58.10
2023-02-28T16:10:10.984Z,58.00
2023-02-28T16:12:40.395Z,53.50
2023-02-28T16:15:19.034Z,50.10
2023-02-28T16:17:48.229Z,56.90
2023-02-28T16:20:23.119Z,55.80
2023-02-28T16:22:51.708Z,42.60
2023-02-28T16:25:24.660Z,44.20
2023-02-28T16:27:58.630Z,44.30
2023-02-28T16:30:29.301Z,33.50
2023-02-28T16:32:57.821Z,41.60
2023-02-28T16:35:26.404Z,46.60
2023-02-28T16:37:55.441Z,45.90
2023-02-28T16:40:27.002Z,50.30
2023-02-28T16:42:59.893Z,50.40
2023-02-28T16:45:29.542Z,70.70
2023-02-28T16:47:58.013Z,120.60
2023-02-28T16:50:30.119Z,98.80
2023-02-28T16:52:58.479Z,120.60
2023-02-28T16:55:27.464Z,105.90
2023-02-28T16:57:58.426Z,114.50
2023-02-28T17:00:28.681Z,122.10
2023-02-28T17:02:57.567Z,104.50
2023-02-28T17:07:54.609Z,130.70
2023-02-28T17:10:26.293Z,107.90
2023-02-28T17:12:58.388Z,134.20
2023-02-28T17:15:32.226Z,123.70
2023-02-28T17:20:28.490Z,117.60
2023-02-28T17:22:57.411Z,168.10
2023-02-28T17:25:25.551Z,164.50
2023-02-28T17:27:53.964Z,136.40
2023-02-28T17:30:25.058Z,129.30
2023-02-28T17:32:53.152Z,112.80
2023-02-28T17:35:22.631Z,134.30
2023-02-28T17:37:51.319Z,107.80
2023-02-28T17:40:23.274Z,134.40
2023-02-28T17:42:53.382Z,102.90
2023-02-28T17:45:22.014Z,132.00
2023-02-28T17:47:53.374Z,152.80
2023-02-28T17:50:22.855Z,153.00
2023-02-28T17:52:51.458Z,148.60
2023-02-28T17:57:50.521Z,117.50
2023-02-28T18:00:19.269Z,154.50
2023-02-28T18:02:47.461Z,157.30
2023-02-28T18:05:15.673Z,152.60
2023-02-28T18:07:44.212Z,125.40
2023-02-28T18:10:20.976Z,121.80
2023-02-28T18:12:50.935Z,86.80
2023-02-28T18:15:21.151Z,116.30
2023-02-28T18:17:50.648Z,123.80
2023-02-28T18:20:19.525Z,107.30
2023-02-28T18:25:17.786Z,135.10
2023-02-28T18:27:58.566Z,131.90
2023-02-28T18:30:33.466Z,120.30
2023-02-28T18:33:02.100Z,139.70
2023-02-28T18:35:37.749Z,159.40
2023-02-28T18:38:23.674Z,142.80
2023-02-28T18:40:54.352Z,154.40
2023-02-28T18:43:23.001Z,131.40
2023-02-28T18:45:51.137Z,153.50
2023-02-28T18:48:19.990Z,173.70
2023-02-28T18:50:48.244Z,158.60
2023-02-28T18:53:17.087Z,171.00
2023-02-28T18:58:13.447Z,141.00
2023-02-28T19:00:41.828Z,150.00
2023-02-28T19:03:09.944Z,126.00
2023-02-28T19:05:38.126Z,117.10
2023-02-28T19:08:06.366Z,111.50
2023-02-28T19:10:34.494Z,114.00
2023-02-28T19:13:02.804Z,69.60
2023-02-28T19:15:30.860Z,51.50
2023-02-28T19:17:59.035Z,80.80
2023-02-28T19:20:27.020Z,79.10
2023-02-28T19:22:55.089Z,74.60
2023-02-28T19:25:24.200Z,61.00
2023-02-28T19:27:53.923Z,39.60
2023-02-28T19:30:22.577Z,47.80
2023-02-28T19:32:50.772Z,31.80
2023-02-28T19:35:18.933Z,49.50
2023-02-28T19:37:47.073Z,51.00
2023-02-28T19:40:15.484Z,63.30
2023-02-28T19:42:43.602Z,38.70
2023-02-28T19:45:14.849Z,56.30
2023-02-28T19:47:43.203Z,58.50
2023-02-28T19:50:11.394Z,71.30
2023-02-28T19:55:14.082Z,85.20
2023-02-28T19:57:42.400Z,87.50
2023-02-28T20:00:14.295Z,61.00
2023-02-28T20:02:44.044Z,67.00
2023-02-28T20:05:12.155Z,85.40
2023-02-28T20:07:40.229Z,94.00
2023-02-28T20:10:08.725Z,88.70
2023-02-28T20:12:36.703Z,96.50
2023-02-28T20:15:05.538Z,106.40
2023-02-28T20:17:33.555Z,95.00
2023-02-28T20:20:01.686Z,119.50
2023-02-28T20:22:29.840Z,115.30
2023-02-28T20:24:57.856Z,122.40
2023-02-28T20:27:26.063Z,97.50
2023-02-28T20:29:54.246Z,135.60
2023-02-28T20:32:22.576Z,124.50
2023-02-28T20:34:50.655Z,122.40
2023-02-28T20:37:18.881Z,94.60
2023-02-28T20:39:48.626Z,127.00
2023-02-28T20:42:16.639Z,128.90
2023-02-28T20:44:45.076Z,130.40
2023-02-28T20:47:13.104Z,200.70
2023-02-28T20:49:41.282Z,261.30
2023-02-28T20:52:09.395Z,293.90
2023-02-28T20:54:38.292Z,237.00
2023-02-28T20:59:34.340Z,141.20
2023-02-28T21:02:02.461Z,138.10
2023-02-28T21:04:30.813Z,145.40
2023-02-28T21:06:59.176Z,125.50
2023-02-28T21:09:29.047Z,151.50
2023-02-28T21:11:57.266Z,99.20
2023-02-28T21:14:26.212Z,121.60
2023-02-28T21:16:54.349Z,115.60
2023-02-28T21:19:22.314Z,132.10
2023-02-28T21:21:50.337Z,95.30
2023-02-28T21:24:19.742Z,95.10
2023-02-28T21:26:48.411Z,79.10
2023-02-28T21:31:44.629Z,96.10
2023-02-28T21:34:13.579Z,83.60
2023-02-28T21:39:20.465Z,84.00
2023-02-28T21:41:48.781Z,69.50
2023-02-28T21:44:21.460Z,75.30
2023-02-28T21:46:52.614Z,69.30
2023-02-28T21:49:20.655Z,72.80
2023-02-28T21:51:48.951Z,76.20
2023-02-28T21:54:17.117Z,68.10
2023-02-28T21:56:45.108Z,67.80
2023-02-28T21:59:13.166Z,68.70
2023-02-28T22:01:46.059Z,75.90
2023-02-28T22:04:22.678Z,62.20
2023-02-28T22:06:59.303Z,56.70
2023-02-28T22:09:27.761Z,48.20
2023-02-28T22:11:57.215Z,56.10
2023-02-28T22:14:25.450Z,62.70
2023-02-28T22:16:55.062Z,67.30
2023-02-28T22:19:24.444Z,69.80
2023-02-28T22:21:54.059Z,67.60
2023-02-28T22:24:24.607Z,69.20
2023-02-28T22:26:53.730Z,64.20
2023-02-28T22:31:50.799Z,64.60
2023-02-28T22:34:19.693Z,57.70
2023-02-28T22:39:15.923Z,87.60
2023-02-28T22:41:43.880Z,93.10
2023-02-28T22:45:07.769Z,52.90
2023-02-28T22:47:35.766Z,55.30
2023-02-28T22:50:04.110Z,66.00
2023-02-28T22:52:32.324Z,62.90
2023-02-28T22:55:00.709Z,65.00
2023-02-28T22:57:28.781Z,50.40
2023-02-28T22:59:56.822Z,52.00
2023-02-28T23:02:25.103Z,44.20
2023-02-28T23:04:55.414Z,49.10
2023-02-28T23:07:24.182Z,52.80
2023-02-28T23:12:21.683Z,65.40
2023-02-28T23:14:49.841Z,62.70
2023-02-28T23:17:18.126Z,66.40
2023-02-28T23:19:46.354Z,63.40
2023-02-28T23:22:14.427Z,62.10
2023-02-28T23:24:42.554Z,64.20
2023-02-28T23:27:10.647Z,62.90
2023-02-28T23:29:38.749Z,66.90
2023-02-28T23:32:06.959Z,61.70
2023-02-28T23:34:35.497Z,64.60
2023-02-28T23:37:03.628Z,67.60
2023-02-28T23:39:31.880Z,66.90
2023-02-28T23:42:00.366Z,58.30
2023-02-28T23:44:28.736Z,68.80
2023-02-28T23:46:56.891Z,63.40
2023-02-28T23:49:25.944Z,52.80
2023-02-28T23:51:54.534Z,58.00
2023-02-28T23:56:51.380Z,49.10
2023-02-28T23:59:20.076Z,42.50
